sensor_id;sensor_type;location;lat;lon;timestamp;P1;durP1;ratioP1;P2;durP2;ratioP2
41394;SDS011;27136;53.810;8.886;2022-08-11T00:01:48;5.82;;;3.15;;
41394;SDS011;27136;53.810;8.886;2022-08-11T00:04:18;6.65;;;3.20;;
41394;SDS011;27136;53.810;8.886;2022-08-11T00:06:47;4.22;;;3.08;;
41394;SDS011;27136;53.810;8.886;2022-08-11T00:09:15;4.68;;;2.83;;
41394;SDS011;27136;53.810;8.886;2022-08-11T00:11:45;4.82;;;2.80;;
41394;SDS011;27136;53.810;8.886;2022-08-11T00:14:20;6.28;;;3.08;;
41394;SDS011;27136;53.810;8.886;2022-08-11T00:17:03;3.85;;;2.60;;
41394;SDS011;27136;53.810;8.886;2022-08-11T00:19:37;4.85;;;3.10;;
41394;SDS011;27136;53.810;8.886;2022-08-11T00:22:18;4.20;;;2.67;;
41394;SDS011;27136;53.810;8.886;2022-08-11T00:24:45;4.95;;;2.35;;
41394;SDS011;27136;53.810;8.886;2022-08-11T00:27:12;8.95;;;2.88;;
41394;SDS011;27136;53.810;8.886;2022-08-11T00:29:37;4.72;;;2.70;;
41394;SDS011;27136;53.810;8.886;2022-08-11T00:32:03;3.45;;;2.38;;
41394;SDS011;27136;53.810;8.886;2022-08-11T00:34:32;3.60;;;2.72;;
41394;SDS011;27136;53.810;8.886;2022-08-11T00:37:08;5.45;;;3.35;;
41394;SDS011;27136;53.810;8.886;2022-08-11T00:39:41;4.90;;;2.97;;
41394;SDS011;27136;53.810;8.886;2022-08-11T00:42:17;4.75;;;3.20;;
41394;SDS011;27136;53.810;8.886;2022-08-11T00:50:26;4.47;;;3.42;;
41394;SDS011;27136;53.810;8.886;2022-08-11T00:52:58;6.13;;;3.20;;
41394;SDS011;27136;53.810;8.886;2022-08-11T01:01:54;5.47;;;3.45;;
41394;SDS011;27136;53.810;8.886;2022-08-11T01:40:25;6.88;;;3.28;;
41394;SDS011;27136;53.810;8.886;2022-08-11T01:46:32;6.90;;;3.35;;
41394;SDS011;27136;53.810;8.886;2022-08-11T01:49:11;3.83;;;3.13;;
41394;SDS011;27136;53.810;8.886;2022-08-11T01:54:23;4.00;;;3.10;;
41394;SDS011;27136;53.810;8.886;2022-08-11T01:59:33;4.72;;;3.25;;
41394;SDS011;27136;53.810;8.886;2022-08-11T02:04:48;6.20;;;4.30;;
41394;SDS011;27136;53.810;8.886;2022-08-11T02:07:32;4.65;;;3.47;;
41394;SDS011;27136;53.810;8.886;2022-08-11T02:10:25;9.70;;;4.30;;
41394;SDS011;27136;53.810;8.886;2022-08-11T02:13:19;5.03;;;3.67;;
41394;SDS011;27136;53.810;8.886;2022-08-11T02:16:09;8.40;;;3.60;;
41394;SDS011;27136;53.810;8.886;2022-08-11T02:18:47;5.30;;;3.35;;
41394;SDS011;27136;53.810;8.886;2022-08-11T02:21:43;5.13;;;3.17;;
41394;SDS011;27136;53.810;8.886;2022-08-11T02:24:34;4.55;;;2.97;;
41394;SDS011;27136;53.810;8.886;2022-08-11T02:27:17;4.55;;;3.60;;
41394;SDS011;27136;53.810;8.886;2022-08-11T02:30:03;5.53;;;4.15;;
41394;SDS011;27136;53.810;8.886;2022-08-11T02:32:40;6.38;;;3.50;;
41394;SDS011;27136;53.810;8.886;2022-08-11T02:35:37;5.78;;;3.10;;
41394;SDS011;27136;53.810;8.886;2022-08-11T02:38:23;5.65;;;3.30;;
41394;SDS011;27136;53.810;8.886;2022-08-11T02:44:02;5.18;;;3.80;;
41394;SDS011;27136;53.810;8.886;2022-08-11T02:46:40;3.72;;;3.35;;
41394;SDS011;27136;53.810;8.886;2022-08-11T02:52:32;7.50;;;3.90;;
41394;SDS011;27136;53.810;8.886;2022-08-11T02:57:52;6.05;;;4.20;;
41394;SDS011;27136;53.810;8.886;2022-08-11T03:00:27;6.05;;;3.40;;
41394;SDS011;27136;53.810;8.886;2022-08-11T03:06:04;7.60;;;4.30;;
41394;SDS011;27136;53.810;8.886;2022-08-11T03:08:49;5.55;;;3.83;;
41394;SDS011;27136;53.810;8.886;2022-08-11T03:14:34;6.65;;;4.60;;
41394;SDS011;27136;53.810;8.886;2022-08-11T03:17:41;6.05;;;4.40;;
41394;SDS011;27136;53.810;8.886;2022-08-11T03:28:35;6.13;;;4.35;;
41394;SDS011;27136;53.810;8.886;2022-08-11T03:33:59;5.57;;;4.85;;
41394;SDS011;27136;53.810;8.886;2022-08-11T03:39:17;8.00;;;4.75;;
41394;SDS011;27136;53.810;8.886;2022-08-11T03:42:00;7.20;;;4.70;;
41394;SDS011;27136;53.810;8.886;2022-08-11T03:50:01;6.78;;;5.22;;
41394;SDS011;27136;53.810;8.886;2022-08-11T04:10:36;6.45;;;4.15;;
41394;SDS011;27136;53.810;8.886;2022-08-11T04:13:39;8.85;;;5.15;;
41394;SDS011;27136;53.810;8.886;2022-08-11T04:16:43;5.68;;;4.63;;
41394;SDS011;27136;53.810;8.886;2022-08-11T04:30:43;6.95;;;4.35;;
41394;SDS011;27136;53.810;8.886;2022-08-11T04:33:29;7.50;;;4.30;;
41394;SDS011;27136;53.810;8.886;2022-08-11T04:39:46;7.93;;;4.80;;
41394;SDS011;27136;53.810;8.886;2022-08-11T04:42:53;8.18;;;5.15;;
41394;SDS011;27136;53.810;8.886;2022-08-11T04:48:41;6.40;;;4.43;;
41394;SDS011;27136;53.810;8.886;2022-08-11T04:55:13;7.90;;;5.15;;
41394;SDS011;27136;53.810;8.886;2022-08-11T05:07:31;8.38;;;4.55;;
41394;SDS011;27136;53.810;8.886;2022-08-11T05:12:54;9.15;;;4.97;;
41394;SDS011;27136;53.810;8.886;2022-08-11T05:15:44;7.85;;;4.85;;
41394;SDS011;27136;53.810;8.886;2022-08-11T05:18:34;5.40;;;3.80;;
41394;SDS011;27136;53.810;8.886;2022-08-11T05:21:20;6.35;;;4.75;;
41394;SDS011;27136;53.810;8.886;2022-08-11T05:24:21;8.05;;;4.22;;
41394;SDS011;27136;53.810;8.886;2022-08-11T05:27:13;5.10;;;4.35;;
41394;SDS011;27136;53.810;8.886;2022-08-11T05:30:02;6.88;;;4.43;;
41394;SDS011;27136;53.810;8.886;2022-08-11T05:32:56;8.18;;;4.43;;
41394;SDS011;27136;53.810;8.886;2022-08-11T05:35:45;5.97;;;3.92;;
41394;SDS011;27136;53.810;8.886;2022-08-11T05:38:19;8.10;;;4.60;;
41394;SDS011;27136;53.810;8.886;2022-08-11T05:41:10;9.85;;;4.60;;
41394;SDS011;27136;53.810;8.886;2022-08-11T05:43:57;7.00;;;4.78;;
41394;SDS011;27136;53.810;8.886;2022-08-11T05:46:42;5.97;;;4.40;;
41394;SDS011;27136;53.810;8.886;2022-08-11T05:49:31;7.97;;;4.53;;
41394;SDS011;27136;53.810;8.886;2022-08-11T05:52:20;5.68;;;4.32;;
41394;SDS011;27136;53.810;8.886;2022-08-11T05:55:09;6.72;;;4.13;;
41394;SDS011;27136;53.810;8.886;2022-08-11T05:58:04;8.82;;;4.78;;
41394;SDS011;27136;53.810;8.886;2022-08-11T06:00:37;7.68;;;5.03;;
41394;SDS011;27136;53.810;8.886;2022-08-11T06:03:06;8.65;;;4.63;;
41394;SDS011;27136;53.810;8.886;2022-08-11T06:05:35;6.72;;;4.10;;
41394;SDS011;27136;53.810;8.886;2022-08-11T06:08:03;9.57;;;4.77;;
41394;SDS011;27136;53.810;8.886;2022-08-11T06:10:32;5.53;;;4.15;;
41394;SDS011;27136;53.810;8.886;2022-08-11T06:12:59;6.22;;;3.78;;
41394;SDS011;27136;53.810;8.886;2022-08-11T06:15:25;7.13;;;4.00;;
41394;SDS011;27136;53.810;8.886;2022-08-11T06:17:52;7.43;;;4.72;;
41394;SDS011;27136;53.810;8.886;2022-08-11T06:20:19;5.28;;;4.55;;
41394;SDS011;27136;53.810;8.886;2022-08-11T06:22:47;6.68;;;3.47;;
41394;SDS011;27136;53.810;8.886;2022-08-11T06:25:20;8.00;;;4.95;;
41394;SDS011;27136;53.810;8.886;2022-08-11T06:27:47;9.13;;;5.00;;
41394;SDS011;27136;53.810;8.886;2022-08-11T06:30:21;10.02;;;5.60;;
41394;SDS011;27136;53.810;8.886;2022-08-11T06:33:20;5.97;;;3.72;;
41394;SDS011;27136;53.810;8.886;2022-08-11T06:35:57;5.85;;;3.90;;
41394;SDS011;27136;53.810;8.886;2022-08-11T06:38:31;6.38;;;3.85;;
41394;SDS011;27136;53.810;8.886;2022-08-11T06:41:12;6.63;;;3.55;;
41394;SDS011;27136;53.810;8.886;2022-08-11T06:46:37;5.40;;;4.00;;
41394;SDS011;27136;53.810;8.886;2022-08-11T06:49:11;7.47;;;4.35;;
41394;SDS011;27136;53.810;8.886;2022-08-11T06:51:58;7.67;;;4.20;;
41394;SDS011;27136;53.810;8.886;2022-08-11T06:54:34;12.10;;;4.45;;
41394;SDS011;27136;53.810;8.886;2022-08-11T06:57:02;5.40;;;3.83;;
41394;SDS011;27136;53.810;8.886;2022-08-11T06:59:48;6.93;;;3.58;;
41394;SDS011;27136;53.810;8.886;2022-08-11T07:02:36;5.90;;;3.75;;
41394;SDS011;27136;53.810;8.886;2022-08-11T07:05:23;16.38;;;4.25;;
41394;SDS011;27136;53.810;8.886;2022-08-11T07:14:04;5.97;;;3.60;;
41394;SDS011;27136;53.810;8.886;2022-08-11T07:16:50;7.53;;;3.38;;
41394;SDS011;27136;53.810;8.886;2022-08-11T07:19:23;5.10;;;3.60;;
41394;SDS011;27136;53.810;8.886;2022-08-11T07:22:10;4.22;;;2.92;;
41394;SDS011;27136;53.810;8.886;2022-08-11T07:27:44;5.13;;;2.95;;
41394;SDS011;27136;53.810;8.886;2022-08-11T07:30:31;6.00;;;3.70;;
41394;SDS011;27136;53.810;8.886;2022-08-11T07:33:01;7.18;;;3.28;;
41394;SDS011;27136;53.810;8.886;2022-08-11T07:35:31;4.90;;;3.50;;
41394;SDS011;27136;53.810;8.886;2022-08-11T07:38:01;4.75;;;3.70;;
41394;SDS011;27136;53.810;8.886;2022-08-11T07:40:31;7.78;;;3.47;;
41394;SDS011;27136;53.810;8.886;2022-08-11T07:42:58;6.05;;;3.50;;
41394;SDS011;27136;53.810;8.886;2022-08-11T07:45:25;5.45;;;3.47;;
41394;SDS011;27136;53.810;8.886;2022-08-11T07:48:11;5.20;;;4.22;;
41394;SDS011;27136;53.810;8.886;2022-08-11T07:50:56;6.15;;;3.55;;
41394;SDS011;27136;53.810;8.886;2022-08-11T07:53:42;5.40;;;3.88;;
41394;SDS011;27136;53.810;8.886;2022-08-11T07:56:08;6.97;;;3.38;;
41394;SDS011;27136;53.810;8.886;2022-08-11T07:58:34;4.15;;;3.40;;
41394;SDS011;27136;53.810;8.886;2022-08-11T08:01:23;8.25;;;3.72;;
41394;SDS011;27136;53.810;8.886;2022-08-11T08:04:08;5.05;;;3.40;;
41394;SDS011;27136;53.810;8.886;2022-08-11T08:06:55;7.47;;;3.35;;
41394;SDS011;27136;53.810;8.886;2022-08-11T08:09:40;6.85;;;3.35;;
41394;SDS011;27136;53.810;8.886;2022-08-11T08:12:26;6.85;;;3.42;;
41394;SDS011;27136;53.810;8.886;2022-08-11T08:15:13;6.65;;;3.15;;
41394;SDS011;27136;53.810;8.886;2022-08-11T08:17:58;8.75;;;3.90;;
41394;SDS011;27136;53.810;8.886;2022-08-11T08:20:30;5.07;;;2.80;;
41394;SDS011;27136;53.810;8.886;2022-08-11T08:23:08;6.05;;;2.72;;
41394;SDS011;27136;53.810;8.886;2022-08-11T08:25:35;4.78;;;3.10;;
41394;SDS011;27136;53.810;8.886;2022-08-11T08:28:07;4.65;;;2.92;;
41394;SDS011;27136;53.810;8.886;2022-08-11T08:30:35;6.10;;;3.17;;
41394;SDS011;27136;53.810;8.886;2022-08-11T08:35:57;4.50;;;2.80;;
41394;SDS011;27136;53.810;8.886;2022-08-11T08:38:48;4.57;;;2.88;;
41394;SDS011;27136;53.810;8.886;2022-08-11T08:41:31;8.53;;;2.93;;
41394;SDS011;27136;53.810;8.886;2022-08-11T08:44:05;6.95;;;3.10;;
41394;SDS011;27136;53.810;8.886;2022-08-11T08:46:34;4.80;;;2.80;;
41394;SDS011;27136;53.810;8.886;2022-08-11T08:49:04;5.80;;;3.15;;
41394;SDS011;27136;53.810;8.886;2022-08-11T08:51:31;5.43;;;2.88;;
41394;SDS011;27136;53.810;8.886;2022-08-11T08:54:07;5.10;;;2.63;;
41394;SDS011;27136;53.810;8.886;2022-08-11T08:56:37;5.38;;;2.67;;
41394;SDS011;27136;53.810;8.886;2022-08-11T08:59:04;4.88;;;2.60;;
41394;SDS011;27136;53.810;8.886;2022-08-11T09:01:34;4.40;;;2.80;;
41394;SDS011;27136;53.810;8.886;2022-08-11T09:04:07;3.95;;;2.70;;
41394;SDS011;27136;53.810;8.886;2022-08-11T09:06:36;6.38;;;2.75;;
41394;SDS011;27136;53.810;8.886;2022-08-11T09:09:07;4.60;;;2.70;;
41394;SDS011;27136;53.810;8.886;2022-08-11T09:11:34;3.97;;;2.45;;
41394;SDS011;27136;53.810;8.886;2022-08-11T09:14:35;3.60;;;2.28;;
41394;SDS011;27136;53.810;8.886;2022-08-11T09:17:22;4.07;;;1.98;;
41394;SDS011;27136;53.810;8.886;2022-08-11T09:19:50;4.43;;;2.30;;
41394;SDS011;27136;53.810;8.886;2022-08-11T09:22:28;2.88;;;2.20;;
41394;SDS011;27136;53.810;8.886;2022-08-11T09:25:14;3.47;;;1.88;;
41394;SDS011;27136;53.810;8.886;2022-08-11T09:27:59;3.50;;;2.03;;
41394;SDS011;27136;53.810;8.886;2022-08-11T09:30:27;3.03;;;2.35;;
41394;SDS011;27136;53.810;8.886;2022-08-11T09:32:53;3.65;;;1.88;;
41394;SDS011;27136;53.810;8.886;2022-08-11T09:35:25;3.83;;;1.85;;
41394;SDS011;27136;53.810;8.886;2022-08-11T09:37:53;3.05;;;1.77;;
41394;SDS011;27136;53.810;8.886;2022-08-11T09:40:38;2.63;;;1.80;;
41394;SDS011;27136;53.810;8.886;2022-08-11T09:43:05;3.35;;;1.85;;
41394;SDS011;27136;53.810;8.886;2022-08-11T09:45:54;3.80;;;2.30;;
41394;SDS011;27136;53.810;8.886;2022-08-11T09:48:25;6.07;;;2.03;;
41394;SDS011;27136;53.810;8.886;2022-08-11T09:50:53;3.53;;;1.88;;
41394;SDS011;27136;53.810;8.886;2022-08-11T09:53:21;6.50;;;2.05;;
41394;SDS011;27136;53.810;8.886;2022-08-11T09:55:50;5.07;;;1.90;;
41394;SDS011;27136;53.810;8.886;2022-08-11T09:58:16;2.92;;;1.90;;
41394;SDS011;27136;53.810;8.886;2022-08-11T10:00:43;4.57;;;2.60;;
41394;SDS011;27136;53.810;8.886;2022-08-11T10:03:14;5.32;;;1.85;;
41394;SDS011;27136;53.810;8.886;2022-08-11T10:05:46;5.18;;;1.95;;
41394;SDS011;27136;53.810;8.886;2022-08-11T10:08:39;3.13;;;1.58;;
41394;SDS011;27136;53.810;8.886;2022-08-11T10:11:08;3.80;;;1.52;;
41394;SDS011;27136;53.810;8.886;2022-08-11T10:13:39;3.83;;;2.63;;
41394;SDS011;27136;53.810;8.886;2022-08-11T10:16:26;2.90;;;2.13;;
41394;SDS011;27136;53.810;8.886;2022-08-11T10:18:57;2.47;;;1.60;;
41394;SDS011;27136;53.810;8.886;2022-08-11T10:24:05;2.72;;;2.00;;
41394;SDS011;27136;53.810;8.886;2022-08-11T10:26:51;7.05;;;3.45;;
41394;SDS011;27136;53.810;8.886;2022-08-11T10:29:35;4.90;;;2.78;;
41394;SDS011;27136;53.810;8.886;2022-08-11T10:32:24;3.58;;;2.42;;
41394;SDS011;27136;53.810;8.886;2022-08-11T10:35:11;3.55;;;2.47;;
41394;SDS011;27136;53.810;8.886;2022-08-11T10:37:38;3.80;;;2.25;;
41394;SDS011;27136;53.810;8.886;2022-08-11T10:42:33;6.55;;;2.67;;
41394;SDS011;27136;53.810;8.886;2022-08-11T10:45:19;4.47;;;2.72;;
41394;SDS011;27136;53.810;8.886;2022-08-11T10:48:04;4.25;;;2.53;;
41394;SDS011;27136;53.810;8.886;2022-08-11T10:50:31;6.35;;;2.38;;
41394;SDS011;27136;53.810;8.886;2022-08-11T10:53:16;7.57;;;2.15;;
41394;SDS011;27136;53.810;8.886;2022-08-11T10:56:03;4.38;;;2.10;;
41394;SDS011;27136;53.810;8.886;2022-08-11T10:58:49;4.57;;;2.30;;
41394;SDS011;27136;53.810;8.886;2022-08-11T11:03:52;6.78;;;2.60;;
41394;SDS011;27136;53.810;8.886;2022-08-11T11:11:47;4.53;;;2.45;;
41394;SDS011;27136;53.810;8.886;2022-08-11T11:14:35;2.58;;;2.13;;
41394;SDS011;27136;53.810;8.886;2022-08-11T11:20:22;2.60;;;1.73;;
41394;SDS011;27136;53.810;8.886;2022-08-11T11:22:50;4.88;;;2.15;;
41394;SDS011;27136;53.810;8.886;2022-08-11T11:36:47;2.75;;;1.95;;
41394;SDS011;27136;53.810;8.886;2022-08-11T11:39:19;2.42;;;1.67;;
41394;SDS011;27136;53.810;8.886;2022-08-11T11:41:47;2.75;;;1.70;;
41394;SDS011;27136;53.810;8.886;2022-08-11T11:46:40;4.68;;;2.30;;
41394;SDS011;27136;53.810;8.886;2022-08-11T11:49:09;6.93;;;2.15;;
41394;SDS011;27136;53.810;8.886;2022-08-11T11:51:36;3.15;;;1.88;;
41394;SDS011;27136;53.810;8.886;2022-08-11T11:54:02;2.55;;;1.65;;
41394;SDS011;27136;53.810;8.886;2022-08-11T11:56:29;2.67;;;1.70;;
41394;SDS011;27136;53.810;8.886;2022-08-11T11:58:55;2.80;;;1.73;;
41394;SDS011;27136;53.810;8.886;2022-08-11T12:01:40;2.80;;;1.55;;
41394;SDS011;27136;53.810;8.886;2022-08-11T12:04:07;3.03;;;1.90;;
41394;SDS011;27136;53.810;8.886;2022-08-11T12:06:38;3.72;;;2.45;;
41394;SDS011;27136;53.810;8.886;2022-08-11T12:09:05;5.78;;;2.30;;
41394;SDS011;27136;53.810;8.886;2022-08-11T12:11:31;2.58;;;2.08;;
41394;SDS011;27136;53.810;8.886;2022-08-11T12:14:17;2.38;;;1.75;;
41394;SDS011;27136;53.810;8.886;2022-08-11T12:16:44;3.38;;;2.05;;
41394;SDS011;27136;53.810;8.886;2022-08-11T12:19:18;3.75;;;2.00;;
41394;SDS011;27136;53.810;8.886;2022-08-11T12:21:48;5.35;;;2.30;;
41394;SDS011;27136;53.810;8.886;2022-08-11T12:24:34;2.42;;;1.83;;
41394;SDS011;27136;53.810;8.886;2022-08-11T12:27:19;2.63;;;1.60;;
41394;SDS011;27136;53.810;8.886;2022-08-11T12:29:50;3.13;;;2.00;;
41394;SDS011;27136;53.810;8.886;2022-08-11T12:32:21;3.42;;;1.90;;
41394;SDS011;27136;53.810;8.886;2022-08-11T12:34:49;4.03;;;1.65;;
41394;SDS011;27136;53.810;8.886;2022-08-11T12:37:15;3.72;;;1.85;;
41394;SDS011;27136;53.810;8.886;2022-08-11T12:39:49;3.65;;;1.67;;
41394;SDS011;27136;53.810;8.886;2022-08-11T12:42:35;3.65;;;1.90;;
41394;SDS011;27136;53.810;8.886;2022-08-11T12:45:23;2.75;;;1.67;;
41394;SDS011;27136;53.810;8.886;2022-08-11T12:48:04;4.30;;;1.75;;
41394;SDS011;27136;53.810;8.886;2022-08-11T12:50:57;4.28;;;1.40;;
41394;SDS011;27136;53.810;8.886;2022-08-11T12:53:55;3.22;;;1.88;;
41394;SDS011;27136;53.810;8.886;2022-08-11T12:56:31;3.03;;;1.48;;
41394;SDS011;27136;53.810;8.886;2022-08-11T12:59:22;5.03;;;1.95;;
41394;SDS011;27136;53.810;8.886;2022-08-11T13:02:08;3.17;;;1.50;;
41394;SDS011;27136;53.810;8.886;2022-08-11T13:04:57;2.00;;;1.40;;
41394;SDS011;27136;53.810;8.886;2022-08-11T13:07:27;3.78;;;1.75;;
41394;SDS011;27136;53.810;8.886;2022-08-11T13:09:54;3.03;;;1.70;;
41394;SDS011;27136;53.810;8.886;2022-08-11T13:12:24;2.58;;;1.70;;
41394;SDS011;27136;53.810;8.886;2022-08-11T13:15:13;2.40;;;1.35;;
41394;SDS011;27136;53.810;8.886;2022-08-11T13:17:44;3.55;;;2.08;;
41394;SDS011;27136;53.810;8.886;2022-08-11T13:20:12;2.67;;;1.73;;
41394;SDS011;27136;53.810;8.886;2022-08-11T13:22:41;4.68;;;1.92;;
41394;SDS011;27136;53.810;8.886;2022-08-11T13:25:11;2.50;;;1.55;;
41394;SDS011;27136;53.810;8.886;2022-08-11T13:27:40;4.45;;;1.70;;
41394;SDS011;27136;53.810;8.886;2022-08-11T13:30:06;4.93;;;1.77;;
41394;SDS011;27136;53.810;8.886;2022-08-11T13:32:50;2.90;;;1.90;;
41394;SDS011;27136;53.810;8.886;2022-08-11T13:35:17;3.33;;;1.88;;
41394;SDS011;27136;53.810;8.886;2022-08-11T13:37:44;4.47;;;2.10;;
41394;SDS011;27136;53.810;8.886;2022-08-11T13:40:11;4.50;;;2.47;;
41394;SDS011;27136;53.810;8.886;2022-08-11T13:42:40;2.20;;;1.70;;
41394;SDS011;27136;53.810;8.886;2022-08-11T13:45:06;3.58;;;1.77;;
41394;SDS011;27136;53.810;8.886;2022-08-11T13:47:32;2.78;;;1.90;;
41394;SDS011;27136;53.810;8.886;2022-08-11T13:49:58;4.22;;;1.80;;
41394;SDS011;27136;53.810;8.886;2022-08-11T13:52:25;4.28;;;1.90;;
41394;SDS011;27136;53.810;8.886;2022-08-11T13:54:52;4.18;;;1.90;;
41394;SDS011;27136;53.810;8.886;2022-08-11T13:57:18;4.05;;;1.83;;
41394;SDS011;27136;53.810;8.886;2022-08-11T13:59:46;2.75;;;1.58;;
41394;SDS011;27136;53.810;8.886;2022-08-11T14:02:18;2.58;;;1.77;;
41394;SDS011;27136;53.810;8.886;2022-08-11T14:04:58;3.67;;;1.83;;
41394;SDS011;27136;53.810;8.886;2022-08-11T14:07:38;2.80;;;1.60;;
41394;SDS011;27136;53.810;8.886;2022-08-11T14:10:11;1.65;;;1.40;;
41394;SDS011;27136;53.810;8.886;2022-08-11T14:12:38;3.83;;;2.03;;
41394;SDS011;27136;53.810;8.886;2022-08-11T14:18:42;3.20;;;2.00;;
41394;SDS011;27136;53.810;8.886;2022-08-11T14:20:54;4.07;;;1.73;;
41394;SDS011;27136;53.810;8.886;2022-08-11T14:23:41;1.95;;;1.40;;
41394;SDS011;27136;53.810;8.886;2022-08-11T14:26:09;3.50;;;1.52;;
41394;SDS011;27136;53.810;8.886;2022-08-11T14:28:53;3.63;;;1.70;;
41394;SDS011;27136;53.810;8.886;2022-08-11T14:31:42;3.75;;;1.58;;
41394;SDS011;27136;53.810;8.886;2022-08-11T14:34:13;4.93;;;1.60;;
41394;SDS011;27136;53.810;8.886;2022-08-11T14:36:42;6.07;;;2.00;;
41394;SDS011;27136;53.810;8.886;2022-08-11T14:39:10;6.18;;;1.67;;
41394;SDS011;27136;53.810;8.886;2022-08-11T14:42:01;3.67;;;1.40;;
41394;SDS011;27136;53.810;8.886;2022-08-11T14:45:06;3.63;;;1.40;;
41394;SDS011;27136;53.810;8.886;2022-08-11T14:47:57;3.63;;;1.58;;
41394;SDS011;27136;53.810;8.886;2022-08-11T14:50:26;3.40;;;1.70;;
41394;SDS011;27136;53.810;8.886;2022-08-11T14:52:54;3.80;;;1.42;;
41394;SDS011;27136;53.810;8.886;2022-08-11T14:55:23;4.95;;;1.40;;
41394;SDS011;27136;53.810;8.886;2022-08-11T14:58:10;4.18;;;1.33;;
41394;SDS011;27136;53.810;8.886;2022-08-11T15:00:40;2.28;;;1.33;;
41394;SDS011;27136;53.810;8.886;2022-08-11T15:03:06;4.63;;;2.28;;
41394;SDS011;27136;53.810;8.886;2022-08-11T15:08:00;3.75;;;1.63;;
41394;SDS011;27136;53.810;8.886;2022-08-11T15:10:26;2.97;;;1.63;;
41394;SDS011;27136;53.810;8.886;2022-08-11T15:12:52;2.53;;;1.98;;
41394;SDS011;27136;53.810;8.886;2022-08-11T15:15:19;2.13;;;1.25;;
41394;SDS011;27136;53.810;8.886;2022-08-11T15:18:05;2.75;;;1.60;;
41394;SDS011;27136;53.810;8.886;2022-08-11T15:20:34;3.17;;;1.67;;
41394;SDS011;27136;53.810;8.886;2022-08-11T15:23:18;2.97;;;1.52;;
41394;SDS011;27136;53.810;8.886;2022-08-11T15:26:03;2.75;;;1.60;;
41394;SDS011;27136;53.810;8.886;2022-08-11T15:28:38;2.80;;;1.50;;
41394;SDS011;27136;53.810;8.886;2022-08-11T15:31:26;2.08;;;1.65;;
41394;SDS011;27136;53.810;8.886;2022-08-11T15:34:15;3.92;;;1.50;;
41394;SDS011;27136;53.810;8.886;2022-08-11T15:37:09;2.10;;;1.40;;
41394;SDS011;27136;53.810;8.886;2022-08-11T15:39:52;2.45;;;1.30;;
41394;SDS011;27136;53.810;8.886;2022-08-11T15:46:15;3.05;;;1.75;;
41394;SDS011;27136;53.810;8.886;2022-08-11T15:48:45;4.25;;;1.40;;
41394;SDS011;27136;53.810;8.886;2022-08-11T15:51:27;3.00;;;1.45;;
41394;SDS011;27136;53.810;8.886;2022-08-11T15:53:58;3.42;;;1.48;;
41394;SDS011;27136;53.810;8.886;2022-08-11T15:56:50;2.38;;;1.35;;
41394;SDS011;27136;53.810;8.886;2022-08-11T15:59:19;2.53;;;1.40;;
41394;SDS011;27136;53.810;8.886;2022-08-11T16:02:05;2.53;;;1.55;;
41394;SDS011;27136;53.810;8.886;2022-08-11T16:04:52;1.85;;;1.10;;
41394;SDS011;27136;53.810;8.886;2022-08-11T16:07:20;3.42;;;1.20;;
41394;SDS011;27136;53.810;8.886;2022-08-11T16:09:52;3.53;;;1.60;;
41394;SDS011;27136;53.810;8.886;2022-08-11T16:12:31;1.73;;;1.48;;
41394;SDS011;27136;53.810;8.886;2022-08-11T16:15:03;2.33;;;1.85;;
41394;SDS011;27136;53.810;8.886;2022-08-11T16:17:50;4.93;;;1.77;;
41394;SDS011;27136;53.810;8.886;2022-08-11T16:20:21;3.05;;;1.83;;
41394;SDS011;27136;53.810;8.886;2022-08-11T16:22:51;2.13;;;1.40;;
41394;SDS011;27136;53.810;8.886;2022-08-11T16:25:20;6.88;;;1.85;;
41394;SDS011;27136;53.810;8.886;2022-08-11T16:27:50;5.28;;;1.70;;
41394;SDS011;27136;53.810;8.886;2022-08-11T16:30:34;2.60;;;1.60;;
41394;SDS011;27136;53.810;8.886;2022-08-11T16:33:01;2.00;;;1.60;;
41394;SDS011;27136;53.810;8.886;2022-08-11T16:35:31;5.38;;;1.65;;
41394;SDS011;27136;53.810;8.886;2022-08-11T16:41:00;2.42;;;1.50;;
41394;SDS011;27136;53.810;8.886;2022-08-11T16:43:30;3.60;;;1.70;;
41394;SDS011;27136;53.810;8.886;2022-08-11T16:46:16;4.45;;;1.48;;
41394;SDS011;27136;53.810;8.886;2022-08-11T16:49:05;1.83;;;1.55;;
41394;SDS011;27136;53.810;8.886;2022-08-11T16:51:35;2.33;;;1.52;;
41394;SDS011;27136;53.810;8.886;2022-08-11T16:54:01;3.85;;;1.58;;
41394;SDS011;27136;53.810;8.886;2022-08-11T16:56:41;6.55;;;2.38;;
41394;SDS011;27136;53.810;8.886;2022-08-11T17:02:02;2.95;;;1.70;;
41394;SDS011;27136;53.810;8.886;2022-08-11T17:07:36;3.38;;;1.63;;
41394;SDS011;27136;53.810;8.886;2022-08-11T17:10:24;2.67;;;1.80;;
41394;SDS011;27136;53.810;8.886;2022-08-11T17:13:11;4.28;;;2.05;;
41394;SDS011;27136;53.810;8.886;2022-08-11T17:18:26;3.73;;;1.73;;
41394;SDS011;27136;53.810;8.886;2022-08-11T17:21:14;3.65;;;1.70;;
41394;SDS011;27136;53.810;8.886;2022-08-11T17:23:55;3.65;;;1.70;;
41394;SDS011;27136;53.810;8.886;2022-08-11T17:31:53;3.60;;;1.50;;
41394;SDS011;27136;53.810;8.886;2022-08-11T17:34:39;2.92;;;1.50;;
41394;SDS011;27136;53.810;8.886;2022-08-11T17:39:55;3.33;;;1.73;;
41394;SDS011;27136;53.810;8.886;2022-08-11T17:42:22;4.70;;;1.95;;
41394;SDS011;27136;53.810;8.886;2022-08-11T17:45:08;1.93;;;1.40;;
41394;SDS011;27136;53.810;8.886;2022-08-11T17:47:54;3.42;;;1.50;;
41394;SDS011;27136;53.810;8.886;2022-08-11T17:50:39;4.97;;;2.50;;
41394;SDS011;27136;53.810;8.886;2022-08-11T17:53:05;3.55;;;1.88;;
41394;SDS011;27136;53.810;8.886;2022-08-11T17:55:57;2.20;;;1.60;;
41394;SDS011;27136;53.810;8.886;2022-08-11T17:58:59;2.50;;;1.60;;
41394;SDS011;27136;53.810;8.886;2022-08-11T18:01:47;2.63;;;1.60;;
41394;SDS011;27136;53.810;8.886;2022-08-11T18:04:15;2.53;;;1.40;;
41394;SDS011;27136;53.810;8.886;2022-08-11T18:06:42;2.53;;;1.80;;
41394;SDS011;27136;53.810;8.886;2022-08-11T18:09:11;3.95;;;1.80;;
41394;SDS011;27136;53.810;8.886;2022-08-11T18:11:59;3.40;;;1.60;;
41394;SDS011;27136;53.810;8.886;2022-08-11T18:14:49;5.25;;;1.60;;
41394;SDS011;27136;53.810;8.886;2022-08-11T19:37:44;4.47;;;2.05;;
41394;SDS011;27136;53.810;8.886;2022-08-11T19:40:30;4.00;;;1.75;;
41394;SDS011;27136;53.810;8.886;2022-08-11T19:43:15;7.88;;;2.08;;
41394;SDS011;27136;53.810;8.886;2022-08-11T19:46:03;3.95;;;1.80;;
41394;SDS011;27136;53.810;8.886;2022-08-11T19:48:49;5.95;;;2.20;;
41394;SDS011;27136;53.810;8.886;2022-08-11T19:51:38;3.75;;;2.00;;
41394;SDS011;27136;53.810;8.886;2022-08-11T19:54:25;3.05;;;1.70;;
41394;SDS011;27136;53.810;8.886;2022-08-11T19:57:11;4.45;;;1.90;;
41394;SDS011;27136;53.810;8.886;2022-08-11T19:59:56;5.43;;;1.80;;
41394;SDS011;27136;53.810;8.886;2022-08-11T20:02:42;4.68;;;1.70;;
41394;SDS011;27136;53.810;8.886;2022-08-11T20:05:27;3.65;;;1.73;;
41394;SDS011;27136;53.810;8.886;2022-08-11T20:08:15;2.50;;;1.70;;
41394;SDS011;27136;53.810;8.886;2022-08-11T20:11:01;5.50;;;1.85;;
41394;SDS011;27136;53.810;8.886;2022-08-11T20:13:45;2.95;;;1.48;;
41394;SDS011;27136;53.810;8.886;2022-08-11T20:16:31;3.97;;;1.80;;
41394;SDS011;27136;53.810;8.886;2022-08-11T20:19:16;2.83;;;1.83;;
41394;SDS011;27136;53.810;8.886;2022-08-11T20:22:02;3.75;;;1.70;;
41394;SDS011;27136;53.810;8.886;2022-08-11T20:24:48;6.10;;;2.00;;
41394;SDS011;27136;53.810;8.886;2022-08-11T20:27:33;3.30;;;1.85;;
41394;SDS011;27136;53.810;8.886;2022-08-11T20:30:21;5.38;;;1.92;;
41394;SDS011;27136;53.810;8.886;2022-08-11T20:33:06;5.45;;;1.70;;
41394;SDS011;27136;53.810;8.886;2022-08-11T20:35:51;4.10;;;1.70;;
41394;SDS011;27136;53.810;8.886;2022-08-11T20:38:36;4.55;;;2.40;;
41394;SDS011;27136;53.810;8.886;2022-08-11T20:41:21;4.53;;;1.75;;
41394;SDS011;27136;53.810;8.886;2022-08-11T20:44:06;7.13;;;2.50;;
41394;SDS011;27136;53.810;8.886;2022-08-11T20:46:51;4.32;;;1.80;;
41394;SDS011;27136;53.810;8.886;2022-08-11T20:49:36;4.78;;;1.85;;
41394;SDS011;27136;53.810;8.886;2022-08-11T20:52:22;5.32;;;1.67;;